createdAt,value
2023-05-07T00:01:47.297Z,19.36
2023-05-07T00:04:49.657Z,19.37
2023-05-07T00:07:51.412Z,19.34
2023-05-07T00:10:52.981Z,19.33
2023-05-07T00:13:54.864Z,19.34
2023-05-07T00:16:56.613Z,19.33
2023-05-07T00:19:58.288Z,19.33
2023-05-07T00:22:59.742Z,19.32
2023-05-07T00:26:01.315Z,19.32
2023-05-07T00:29:02.823Z,19.33
2023-05-07T00:32:04.526Z,19.31
2023-05-07T00:35:07.007Z,19.23
2023-05-07T00:38:09.113Z,19.09
2023-05-07T00:41:10.628Z,18.98
2023-05-07T00:44:12.284Z,18.86
2023-05-07T00:47:14.766Z,18.80
2023-05-07T00:50:16.427Z,18.72
2023-05-07T00:53:18.229Z,18.73
2023-05-07T00:56:22.390Z,18.78
2023-05-07T00:59:24.526Z,18.83
2023-05-07T01:02:26.344Z,18.87
2023-05-07T01:05:29.455Z,18.90
2023-05-07T01:08:32.854Z,18.93
2023-05-07T01:11:34.585Z,18.94
2023-05-07T01:14:36.393Z,18.97
2023-05-07T01:17:41.176Z,18.99
2023-05-07T01:20:47.599Z,18.98
2023-05-07T01:23:49.805Z,18.99
2023-05-07T01:26:51.575Z,18.99
2023-05-07T01:29:53.545Z,18.99
2023-05-07T01:33:09.730Z,19.00
2023-05-07T01:36:12.976Z,19.00
2023-05-07T01:39:14.903Z,18.99
2023-05-07T01:42:16.431Z,18.97
2023-05-07T01:45:18.159Z,18.98
2023-05-07T01:48:19.731Z,18.98
2023-05-07T01:51:22.366Z,18.97
2023-05-07T01:54:28.814Z,18.98
2023-05-07T01:57:31.442Z,18.95
2023-05-07T02:00:33.569Z,18.95
2023-05-07T02:03:35.209Z,18.94
2023-05-07T02:06:44.553Z,18.94
2023-05-07T02:09:47.213Z,18.92
2023-05-07T02:12:49.246Z,18.92
2023-05-07T02:15:51.577Z,18.90
2023-05-07T02:18:53.671Z,18.89
2023-05-07T02:21:55.408Z,18.89
2023-05-07T02:24:56.952Z,18.89
2023-05-07T02:27:58.697Z,18.89
2023-05-07T02:31:10.881Z,18.87
2023-05-07T02:34:12.383Z,18.86
2023-05-07T02:37:13.907Z,18.86
2023-05-07T02:40:15.481Z,18.85
2023-05-07T02:43:17.049Z,18.84
2023-05-07T02:46:21.568Z,18.83
2023-05-07T02:49:29.429Z,18.83
2023-05-07T02:52:31.257Z,18.82
2023-05-07T02:55:32.866Z,18.82
2023-05-07T02:58:34.439Z,18.82
2023-05-07T03:01:37.208Z,18.82
2023-05-07T03:04:41.997Z,18.81
2023-05-07T03:07:46.250Z,18.81
2023-05-07T03:10:49.126Z,18.81
2023-05-07T03:13:50.999Z,18.79
2023-05-07T03:16:54.254Z,18.79
2023-05-07T03:19:55.788Z,18.77
2023-05-07T03:22:57.294Z,18.78
2023-05-07T03:25:58.787Z,18.77
2023-05-07T03:29:01.311Z,18.75
2023-05-07T03:32:02.837Z,18.76
2023-05-07T03:35:05.007Z,18.75
2023-05-07T03:38:06.693Z,18.74
2023-05-07T03:41:10.787Z,18.73
2023-05-07T03:44:13.106Z,18.73
2023-05-07T03:47:16.078Z,18.73
2023-05-07T03:50:17.957Z,18.74
2023-05-07T03:53:19.892Z,18.72
2023-05-07T03:56:21.932Z,18.72
2023-05-07T03:59:28.925Z,18.72
2023-05-07T04:02:31.576Z,18.72
2023-05-07T04:05:34.348Z,18.72
2023-05-07T04:08:38.135Z,18.72
2023-05-07T04:11:41.362Z,18.73
2023-05-07T04:14:46.045Z,18.73
2023-05-07T04:17:48.236Z,18.71
2023-05-07T04:20:52.216Z,18.70
2023-05-07T04:23:53.742Z,18.72
2023-05-07T04:26:56.045Z,18.69
2023-05-07T04:29:58.782Z,18.68
2023-05-07T04:33:01.020Z,18.67
2023-05-07T04:36:05.443Z,18.68
2023-05-07T04:39:11.856Z,18.67
2023-05-07T04:42:17.272Z,18.67
2023-05-07T04:45:19.146Z,18.65
2023-05-07T04:48:22.081Z,18.64
2023-05-07T04:51:25.493Z,18.64
2023-05-07T04:54:27.584Z,18.63
2023-05-07T04:57:29.247Z,18.63
2023-05-07T05:00:30.815Z,18.61
2023-05-07T05:03:33.725Z,18.62
2023-05-07T05:06:35.384Z,18.61
2023-05-07T05:09:39.407Z,18.61
2023-05-07T05:12:41.507Z,18.60
2023-05-07T05:15:43.434Z,18.61
2023-05-07T05:18:45.450Z,18.60
2023-05-07T05:21:49.542Z,18.61
2023-05-07T05:24:51.121Z,18.60
2023-05-07T05:27:52.936Z,18.61
2023-05-07T05:30:54.531Z,18.61
2023-05-07T05:33:57.774Z,18.61
2023-05-07T05:37:00.788Z,18.61
2023-05-07T05:40:02.692Z,18.61
2023-05-07T05:43:06.889Z,18.62
2023-05-07T05:46:09.884Z,18.60
2023-05-07T05:49:11.675Z,18.59
2023-05-07T05:52:15.133Z,18.59
2023-05-07T05:55:17.081Z,18.59
2023-05-07T05:58:19.059Z,18.58
2023-05-07T06:01:26.910Z,18.59
2023-05-07T06:04:31.140Z,18.58
2023-05-07T06:07:33.735Z,18.58
2023-05-07T06:10:39.477Z,18.59
2023-05-07T06:13:42.928Z,18.58
2023-05-07T06:16:45.074Z,18.57
2023-05-07T06:19:46.678Z,18.57
2023-05-07T06:22:50.335Z,18.56
2023-05-07T06:25:52.745Z,18.57
2023-05-07T06:28:58.546Z,18.56
2023-05-07T06:32:10.994Z,18.56
2023-05-07T06:35:15.811Z,18.56
2023-05-07T06:38:18.342Z,18.54
2023-05-07T06:41:21.522Z,18.54
2023-05-07T06:44:23.291Z,18.53
2023-05-07T06:47:34.546Z,18.53
2023-05-07T06:50:36.743Z,18.53
2023-05-07T06:53:38.270Z,18.54
2023-05-07T06:56:40.240Z,18.56
2023-05-07T06:59:41.837Z,18.57
2023-05-07T07:02:44.457Z,18.57
2023-05-07T07:05:47.456Z,18.58
2023-05-07T07:08:49.046Z,18.60
2023-05-07T07:11:52.746Z,18.61
2023-05-07T07:14:55.009Z,18.62
2023-05-07T07:17:57.514Z,18.62
2023-05-07T07:21:00.125Z,18.62
2023-05-07T07:24:02.440Z,18.64
2023-05-07T07:27:04.009Z,18.64
2023-05-07T07:30:09.384Z,18.64
2023-05-07T07:33:13.563Z,18.64
2023-05-07T07:36:15.255Z,18.65
2023-05-07T07:39:17.391Z,18.65
2023-05-07T07:42:20.335Z,18.65
2023-05-07T07:45:22.099Z,18.65
2023-05-07T07:48:25.729Z,18.64
2023-05-07T07:51:27.684Z,18.65
2023-05-07T07:54:30.200Z,18.64
2023-05-07T07:57:32.163Z,18.65
2023-05-07T08:00:33.925Z,18.64
2023-05-07T08:03:36.469Z,18.64
2023-05-07T08:06:38.594Z,18.63
2023-05-07T08:09:41.664Z,18.63
2023-05-07T08:12:44.191Z,18.62
2023-05-07T08:15:45.958Z,18.62
2023-05-07T08:18:49.370Z,18.62
2023-05-07T08:21:51.564Z,18.62
2023-05-07T08:24:54.596Z,18.60
2023-05-07T08:27:56.222Z,18.60
2023-05-07T08:31:00.770Z,18.60
2023-05-07T08:34:04.641Z,18.60
2023-05-07T08:37:06.228Z,18.59
2023-05-07T08:40:10.206Z,18.59
2023-05-07T08:43:15.642Z,18.58
2023-05-07T08:46:23.028Z,18.59
2023-05-07T08:49:29.379Z,18.56
2023-05-07T08:52:31.314Z,18.57
2023-05-07T08:55:34.104Z,18.56
2023-05-07T08:58:36.138Z,18.57
2023-05-07T09:01:38.076Z,18.56
2023-05-07T09:04:39.638Z,18.57
2023-05-07T09:07:41.287Z,18.57
2023-05-07T09:10:43.752Z,18.57
2023-05-07T09:13:54.058Z,18.57
2023-05-07T09:16:55.663Z,18.57
2023-05-07T09:19:57.426Z,18.57
2023-05-07T09:22:58.974Z,18.58
2023-05-07T09:26:02.109Z,18.58
2023-05-07T09:29:07.088Z,18.59
2023-05-07T09:32:09.680Z,18.59
2023-05-07T09:35:18.669Z,18.62
2023-05-07T09:38:26.556Z,18.60
2023-05-07T09:41:33.361Z,18.62
2023-05-07T09:44:45.584Z,18.61
2023-05-07T09:47:56.544Z,18.63
2023-05-07T09:51:03.510Z,18.64
2023-05-07T09:54:08.130Z,18.64
2023-05-07T09:57:13.532Z,18.65
2023-05-07T10:00:20.320Z,18.65
2023-05-07T10:03:26.952Z,18.64
2023-05-07T10:06:35.661Z,18.64
2023-05-07T10:09:39.616Z,18.65
2023-05-07T10:12:43.989Z,18.65
2023-05-07T10:15:52.022Z,18.67
2023-05-07T10:18:55.447Z,18.67
2023-05-07T10:22:05.575Z,18.67
2023-05-07T10:25:32.076Z,18.68
2023-05-07T10:28:45.834Z,18.69
2023-05-07T10:32:20.661Z,18.69
2023-05-07T10:35:28.027Z,18.70
2023-05-07T10:38:30.234Z,18.70
2023-05-07T10:41:32.258Z,18.69
2023-05-07T10:44:34.175Z,18.69
2023-05-07T10:48:13.812Z,18.67
2023-05-07T10:51:31.437Z,18.60
2023-05-07T10:54:45.514Z,18.54
2023-05-07T10:57:49.279Z,18.52
2023-05-07T11:01:03.964Z,18.53
2023-05-07T11:04:15.262Z,18.58
2023-05-07T11:07:26.988Z,18.61
2023-05-07T11:10:51.186Z,18.65
2023-05-07T11:14:00.398Z,18.65
2023-05-07T11:17:21.670Z,18.67
2023-05-07T11:20:59.503Z,18.72
2023-05-07T11:24:18.454Z,18.72
2023-05-07T11:27:28.247Z,18.74
2023-05-07T11:30:31.314Z,18.75
2023-05-07T11:33:33.494Z,18.76
2023-05-07T11:36:44.902Z,18.78
2023-05-07T11:39:49.643Z,18.76
2023-05-07T11:45:53.629Z,18.77
2023-05-07T11:48:56.359Z,18.76
2023-05-07T11:51:57.867Z,18.76
2023-05-07T11:55:04.533Z,18.77
2023-05-07T11:58:47.034Z,18.77
2023-05-07T12:01:48.748Z,18.76
2023-05-07T12:04:50.300Z,18.77
2023-05-07T12:07:57.388Z,18.78
2023-05-07T12:10:58.871Z,18.77
2023-05-07T12:14:00.541Z,18.77
2023-05-07T12:17:03.985Z,18.79
2023-05-07T12:20:07.016Z,18.78
2023-05-07T12:23:08.668Z,18.79
2023-05-07T12:26:11.267Z,18.77
2023-05-07T12:29:12.854Z,18.79
2023-05-07T12:32:16.657Z,18.80
2023-05-07T12:35:18.148Z,18.78
2023-05-07T12:38:20.298Z,18.80
2023-05-07T12:41:26.644Z,18.79
2023-05-07T12:44:33.241Z,18.80
2023-05-07T12:47:34.855Z,18.79
2023-05-07T12:50:36.495Z,18.79
2023-05-07T12:53:41.560Z,18.81
2023-05-07T12:56:43.151Z,18.79
2023-05-07T12:59:44.670Z,18.79
2023-05-07T13:02:46.557Z,18.79
2023-05-07T13:05:48.176Z,18.80
2023-05-07T13:08:49.718Z,18.76
2023-05-07T13:11:51.371Z,18.71
2023-05-07T13:14:52.956Z,18.68
2023-05-07T13:17:54.486Z,18.64
2023-05-07T13:20:56.281Z,18.63
2023-05-07T13:23:58.894Z,18.60
2023-05-07T13:27:00.366Z,18.58
2023-05-07T13:30:02.063Z,18.55
2023-05-07T13:33:03.734Z,18.53
2023-05-07T13:36:06.573Z,18.50
2023-05-07T13:39:08.255Z,18.47
2023-05-07T13:42:09.748Z,18.45
2023-05-07T13:45:11.628Z,18.44
2023-05-07T13:48:13.168Z,18.43
2023-05-07T13:51:14.668Z,18.40
2023-05-07T13:54:16.788Z,18.39
2023-05-07T13:57:18.347Z,18.37
2023-05-07T14:00:19.830Z,18.36
2023-05-07T14:03:21.404Z,18.35
2023-05-07T14:06:23.032Z,18.33
2023-05-07T14:09:24.985Z,18.33
2023-05-07T14:12:26.455Z,18.30
2023-05-07T14:15:27.997Z,18.29
2023-05-07T14:18:29.957Z,18.28
2023-05-07T14:21:31.832Z,18.28
2023-05-07T14:24:38.546Z,18.27
2023-05-07T14:27:40.621Z,18.25
2023-05-07T14:30:42.160Z,18.25
2023-05-07T14:33:43.768Z,18.25
2023-05-07T14:36:45.327Z,18.24
2023-05-07T14:39:49.748Z,18.23
2023-05-07T14:42:52.282Z,18.22
2023-05-07T14:45:53.922Z,18.20
2023-05-07T14:48:55.557Z,18.19
2023-05-07T14:51:59.235Z,18.19
2023-05-07T14:55:01.195Z,18.21
2023-05-07T14:58:02.690Z,18.23
2023-05-07T15:01:04.584Z,18.27
2023-05-07T15:04:06.307Z,18.31
2023-05-07T15:07:07.900Z,18.35
2023-05-07T15:10:09.656Z,18.36
2023-05-07T15:13:15.655Z,18.40
2023-05-07T15:16:17.836Z,18.42
2023-05-07T15:19:19.417Z,18.43
2023-05-07T15:22:22.364Z,18.46
2023-05-07T15:25:24.264Z,18.47
2023-05-07T15:28:26.117Z,18.50
2023-05-07T15:31:30.821Z,18.51
2023-05-07T15:34:32.371Z,18.54
2023-05-07T15:37:34.697Z,18.55
2023-05-07T15:40:38.602Z,18.56
2023-05-07T15:43:50.617Z,18.59
2023-05-07T15:46:52.091Z,18.57
2023-05-07T15:49:53.681Z,18.57
2023-05-07T15:52:55.438Z,18.57
2023-05-07T15:55:56.909Z,18.58
2023-05-07T15:58:58.925Z,18.59
2023-05-07T16:02:00.673Z,18.61
2023-05-07T16:05:03.120Z,18.64
2023-05-07T16:08:05.220Z,18.66
2023-05-07T16:11:06.706Z,18.68
2023-05-07T16:14:08.163Z,18.71
2023-05-07T16:17:09.747Z,18.75
2023-05-07T16:20:13.005Z,18.75
2023-05-07T16:23:14.518Z,18.76
2023-05-07T16:26:16.126Z,18.79
2023-05-07T16:29:17.805Z,18.80
2023-05-07T16:32:19.639Z,18.81
2023-05-07T16:35:21.547Z,18.82
2023-05-07T16:38:23.034Z,18.82
2023-05-07T16:41:24.566Z,18.82
2023-05-07T16:44:26.514Z,18.84
2023-05-07T16:47:28.043Z,18.85
2023-05-07T16:50:29.602Z,18.86
2023-05-07T16:53:31.075Z,18.86
2023-05-07T16:56:32.864Z,18.89
2023-05-07T16:59:34.376Z,18.88
2023-05-07T17:02:36.019Z,18.90
2023-05-07T17:05:38.600Z,18.90
2023-05-07T17:08:42.609Z,18.91
2023-05-07T17:11:44.528Z,18.92
2023-05-07T17:14:45.987Z,18.93
2023-05-07T17:17:47.504Z,18.95
2023-05-07T17:20:49.001Z,18.95
2023-05-07T17:23:50.491Z,18.96
2023-05-07T17:26:52.006Z,18.97
2023-05-07T17:29:54.155Z,18.98
2023-05-07T17:33:03.786Z,19.00
2023-05-07T17:36:11.064Z,19.00
2023-05-07T17:39:12.569Z,19.02
2023-05-07T17:42:14.122Z,19.01
2023-05-07T17:45:16.134Z,19.02
2023-05-07T17:48:17.869Z,19.03
2023-05-07T17:51:19.456Z,19.04
2023-05-07T17:54:21.544Z,19.04
2023-05-07T17:57:23.308Z,19.04
2023-05-07T18:00:24.865Z,19.05
2023-05-07T18:03:27.900Z,19.06
2023-05-07T18:06:29.722Z,19.07
2023-05-07T18:09:31.333Z,19.08
2023-05-07T18:12:32.871Z,19.07
2023-05-07T18:15:34.667Z,19.09
2023-05-07T18:18:36.256Z,19.09
2023-05-07T18:21:38.254Z,19.10
2023-05-07T18:24:39.958Z,19.10
2023-05-07T18:27:41.651Z,19.11
2023-05-07T18:30:43.496Z,19.11
2023-05-07T18:33:45.082Z,19.14
2023-05-07T18:36:46.619Z,19.14
2023-05-07T18:39:48.216Z,19.14
2023-05-07T18:42:49.853Z,19.15
2023-05-07T18:45:51.663Z,19.16
2023-05-07T18:48:54.828Z,19.15
2023-05-07T18:51:57.045Z,19.15
2023-05-07T18:54:58.679Z,19.15
2023-05-07T18:58:00.281Z,19.14
2023-05-07T19:01:02.128Z,19.15
2023-05-07T19:04:03.886Z,19.15
2023-05-07T19:07:06.205Z,19.16
2023-05-07T19:10:08.457Z,19.16
2023-05-07T19:13:10.229Z,19.16
2023-05-07T19:16:13.352Z,19.15
2023-05-07T19:19:15.244Z,19.14
2023-05-07T19:22:16.665Z,19.08
2023-05-07T19:25:18.479Z,18.98
2023-05-07T19:28:20.098Z,18.89
2023-05-07T19:31:22.989Z,18.81
2023-05-07T19:34:24.699Z,18.75
2023-05-07T19:37:27.855Z,18.77
2023-05-07T19:40:29.382Z,18.81
2023-05-07T19:43:35.937Z,18.86
2023-05-07T19:46:40.316Z,18.91
2023-05-07T19:49:44.970Z,18.94
2023-05-07T19:52:46.796Z,18.98
2023-05-07T19:55:48.324Z,18.99
2023-05-07T19:58:49.865Z,19.02
2023-05-07T20:01:51.410Z,19.02
2023-05-07T20:04:54.984Z,19.04
2023-05-07T20:07:56.522Z,19.04
2023-05-07T20:10:59.420Z,19.06
2023-05-07T20:14:01.183Z,19.06
2023-05-07T20:17:02.779Z,19.07
2023-05-07T20:20:04.690Z,19.09
2023-05-07T20:23:06.171Z,19.09
2023-05-07T20:26:07.679Z,19.10
2023-05-07T20:29:09.206Z,19.10
2023-05-07T20:32:10.858Z,19.11
2023-05-07T20:35:12.809Z,19.12
2023-05-07T20:38:14.315Z,19.13
2023-05-07T20:41:17.611Z,19.13
2023-05-07T20:44:19.902Z,19.13
2023-05-07T20:47:21.498Z,19.13
2023-05-07T20:50:27.200Z,19.14
2023-05-07T20:53:32.180Z,19.13
2023-05-07T20:56:34.031Z,19.11
2023-05-07T20:59:35.951Z,19.12
2023-05-07T21:02:37.490Z,19.12
2023-05-07T21:05:38.991Z,19.13
2023-05-07T21:08:40.555Z,19.14
2023-05-07T21:11:42.061Z,19.13
2023-05-07T21:14:43.609Z,19.12
2023-05-07T21:17:45.075Z,19.11
2023-05-07T21:20:46.609Z,19.11
2023-05-07T21:23:49.019Z,19.11
2023-05-07T21:26:51.105Z,19.10
2023-05-07T21:29:52.593Z,19.08
2023-05-07T21:32:55.428Z,19.09
2023-05-07T21:35:57.047Z,19.07
2023-05-07T21:38:58.589Z,19.07
2023-05-07T21:42:00.064Z,19.05
2023-05-07T21:45:04.313Z,19.04
2023-05-07T21:48:05.985Z,19.03
2023-05-07T21:51:08.276Z,19.03
2023-05-07T21:54:09.742Z,19.02
2023-05-07T21:57:11.282Z,19.01
2023-05-07T22:00:13.515Z,19.00
2023-05-07T22:03:15.391Z,18.99
2023-05-07T22:06:21.560Z,18.99
2023-05-07T22:09:23.104Z,18.98
2023-05-07T22:12:24.960Z,18.95
2023-05-07T22:15:26.506Z,18.94
2023-05-07T22:18:28.032Z,18.94
2023-05-07T22:21:29.625Z,18.92
2023-05-07T22:24:31.269Z,18.90
2023-05-07T22:27:32.778Z,18.90
2023-05-07T22:30:34.241Z,18.88
2023-05-07T22:33:35.983Z,18.88
2023-05-07T22:36:37.430Z,18.87
2023-05-07T22:39:38.971Z,18.85
2023-05-07T22:42:40.463Z,18.84
2023-05-07T22:45:42.003Z,18.84
2023-05-07T22:48:44.129Z,18.83
2023-05-07T22:51:45.620Z,18.81
2023-05-07T22:54:47.118Z,18.81
2023-05-07T22:57:48.623Z,18.80
2023-05-07T23:00:50.192Z,18.79
2023-05-07T23:03:51.773Z,18.79
2023-05-07T23:06:53.662Z,18.78
2023-05-07T23:09:55.195Z,18.77
2023-05-07T23:12:56.669Z,18.77
2023-05-07T23:15:58.917Z,18.75
2023-05-07T23:19:00.382Z,18.74
2023-05-07T23:22:01.865Z,18.74
2023-05-07T23:25:04.467Z,18.74
2023-05-07T23:28:06.028Z,18.73
2023-05-07T23:31:08.515Z,18.72
2023-05-07T23:34:10.110Z,18.71
2023-05-07T23:37:11.599Z,18.70
2023-05-07T23:40:13.325Z,18.70
2023-05-07T23:43:15.070Z,18.69
2023-05-07T23:46:16.691Z,18.68
2023-05-07T23:49:18.283Z,18.68
2023-05-07T23:52:19.940Z,18.66
2023-05-07T23:55:21.436Z,18.66
2023-05-07T23:58:23.072Z,18.65
